Columbia Metropolitan Airport
KCAE : now visible

Airfield :











YOU CAN JOIN US ON...

 
LOGIN :

Register | Disclaimer

   EN    FR    IT 

 









Legend :    VFR   Marginal VFR   IFR   Intensive IFR   Very Intensive IFR
Visi :
Ceiling :
>= 8 km
>= 3000ft
5 to 8 km
1000 to 3000 ft
1500m to 5 km
500 to 1000 ft
800 to 1500m
200 to 500 ft
< 800m
< 200 ft
Symbols :   Thunderstorms  Fog  Heavy snow  Heavy precipitations  Wind > 20 kt






- Airport Elevation : 236 ft
- IATA code : CAE


KCAE - Columbia Metropolitan

CURRENT METAR :
  • 281156Z 00000KT 8SM CLR 00/M01 A2998 RMK AO2 SLP152 70001 T00001006 10056 20000 53015

EXPIRED METARs :
  • 281056Z 00000KT 10SM CLR 02/01 A2996 RMK AO2 SLP145 T00170006
  • 280956Z 26003KT 10SM CLR 03/02 A2994 RMK AO2 SLP140 T00280017

TAF KCAE
Valid from the 28 at 12:00 until the 29 at 12:00 UTC


281129Z 2812/2912 VRB03KT P6SM SKC
FM290600 00000KT P6SM SCT150



MET'MAP, your aeronautical weather chart ! - Copyright ORBIFLY December 2007 - Disclaimer

ORBIFLY MET'MAP TEAM :

Programming & Development : Alexandra Zaïnal
Concept & original design : Baudouin d'Aumeries
Assistance for programming : Marc-Olivier Méhu
Technical & hardware support : Manuel Goepfert

Contact : metmap@orbifly.com




SOURCES & CREDITS :

   NOAA       Earth
Advisory